createdAt,value
2022-08-17T00:00:08.887Z,7.20
2022-08-17T00:01:09.202Z,7.00
2022-08-17T00:02:14.513Z,7.20
2022-08-17T00:03:10.021Z,7.50
2022-08-17T00:04:11.920Z,7.80
2022-08-17T00:05:08.797Z,7.60
2022-08-17T00:06:08.765Z,8.00
2022-08-17T00:07:08.776Z,7.20
2022-08-17T00:08:08.750Z,7.00
2022-08-17T00:09:08.739Z,7.30
2022-08-17T00:10:08.744Z,7.40
2022-08-17T00:11:08.712Z,7.10
2022-08-17T00:12:51.381Z,7.50
2022-08-17T00:13:09.686Z,7.80
2022-08-17T00:14:08.672Z,7.70
2022-08-17T00:15:10.514Z,6.90
2022-08-17T00:16:08.643Z,7.60
2022-08-17T00:17:08.697Z,7.30
2022-08-17T00:26:05.060Z,6.90
2022-08-17T00:27:05.066Z,7.10
2022-08-17T00:28:05.016Z,7.10
2022-08-17T00:29:05.039Z,6.80
2022-08-17T00:30:05.013Z,6.70
2022-08-17T00:31:04.996Z,7.00
2022-08-17T00:33:22.894Z,6.70
2022-08-17T00:33:22.894Z,7.00
2022-08-17T00:34:05.968Z,7.10
2022-08-17T00:35:04.953Z,6.40
2022-08-17T01:12:54.351Z,7.50
2022-08-17T01:13:56.058Z,7.40
2022-08-17T01:14:54.306Z,7.70
2022-08-17T01:15:54.299Z,7.80
2022-08-17T01:16:56.063Z,6.90
2022-08-17T01:17:54.281Z,7.70
2022-08-17T01:18:54.306Z,7.40
2022-08-17T01:19:54.249Z,7.30
2022-08-17T01:20:54.252Z,7.40
2022-08-17T01:21:54.575Z,7.50
2022-08-17T01:41:06.466Z,8.70
2022-08-17T01:42:06.434Z,8.10
2022-08-17T01:43:09.184Z,7.60
2022-08-17T01:44:06.750Z,8.00
2022-08-17T01:45:06.408Z,7.40
2022-08-17T01:46:06.406Z,7.40
2022-08-17T01:47:06.385Z,7.70
2022-08-17T01:48:06.402Z,7.00
2022-08-17T01:49:06.388Z,7.10
2022-08-17T01:50:06.330Z,6.40
2022-08-17T02:09:16.558Z,7.40
2022-08-17T02:10:19.842Z,7.30
2022-08-17T02:11:11.667Z,7.80
2022-08-17T02:12:38.254Z,7.40
2022-08-17T02:13:10.989Z,7.40
2022-08-17T02:14:09.967Z,7.40
2022-08-17T02:15:10.259Z,7.60
2022-08-17T02:16:09.954Z,7.30
2022-08-17T02:17:09.937Z,7.30
2022-08-17T02:18:10.760Z,7.10
2022-08-17T02:19:09.883Z,6.80
2022-08-17T02:20:10.232Z,6.80
2022-08-17T02:21:09.854Z,7.20
2022-08-17T02:22:09.856Z,7.50
2022-08-17T02:23:09.867Z,7.40
2022-08-17T02:24:10.747Z,7.30
2022-08-17T02:25:09.804Z,7.30
2022-08-17T02:26:09.818Z,7.80
2022-08-17T02:27:10.802Z,6.80
2022-08-17T02:28:09.782Z,7.30
2022-08-17T02:29:09.771Z,7.00
2022-08-17T02:31:00.691Z,7.10
2022-08-17T02:31:10.796Z,6.80
2022-08-17T02:32:09.749Z,7.20
2022-08-17T02:33:10.705Z,6.70
2022-08-17T02:34:09.690Z,6.80
2022-08-17T02:35:09.990Z,6.90
2022-08-17T02:36:09.687Z,6.80
2022-08-17T02:37:09.713Z,7.20
2022-08-17T02:38:09.650Z,7.00
2022-08-17T02:39:09.908Z,7.80
2022-08-17T02:40:09.676Z,7.80
2022-08-17T02:41:09.614Z,7.90
2022-08-17T02:42:09.606Z,8.00
2022-08-17T02:43:09.593Z,7.80
2022-08-17T02:44:09.570Z,7.80
2022-08-17T02:45:09.574Z,7.80
2022-08-17T02:46:09.536Z,8.20
2022-08-17T02:47:09.540Z,8.20
2022-08-17T03:05:24.259Z,8.10
2022-08-17T03:06:24.250Z,8.10
2022-08-17T03:07:24.230Z,8.40
2022-08-17T03:08:24.254Z,9.00
2022-08-17T03:09:24.225Z,9.10
2022-08-17T03:10:24.209Z,8.80
2022-08-17T03:11:24.188Z,8.40
2022-08-17T03:12:24.176Z,8.50
2022-08-17T03:13:24.203Z,8.60
2022-08-17T03:14:25.931Z,9.00
2022-08-17T03:15:24.145Z,8.30
2022-08-17T03:16:24.120Z,8.30
2022-08-17T03:17:24.412Z,8.40
2022-08-17T03:18:25.932Z,8.60
2022-08-17T03:19:24.079Z,8.00
2022-08-17T03:20:24.080Z,8.60
2022-08-17T03:21:24.055Z,8.90
2022-08-17T03:22:35.892Z,8.90
2022-08-17T03:23:25.408Z,8.20
2022-08-17T03:24:28.663Z,7.80
2022-08-17T03:42:47.672Z,7.60
2022-08-17T03:43:47.711Z,7.50
2022-08-17T03:44:47.635Z,7.50
2022-08-17T03:45:47.619Z,7.90
2022-08-17T03:46:49.362Z,8.00
2022-08-17T03:47:47.593Z,8.00
2022-08-17T03:48:47.559Z,8.50
2022-08-17T03:49:47.570Z,7.70
2022-08-17T03:50:47.553Z,7.80
2022-08-17T03:51:47.522Z,9.00
2022-08-17T04:39:00.120Z,7.10
2022-08-17T04:40:04.135Z,7.20
2022-08-17T04:41:00.050Z,7.50
2022-08-17T04:42:00.058Z,7.40
2022-08-17T04:43:01.112Z,7.40
2022-08-17T04:44:00.024Z,7.10
2022-08-17T04:45:00.014Z,8.20
2022-08-17T04:46:00.316Z,7.70
2022-08-17T04:46:59.992Z,7.40
2022-08-17T04:47:59.995Z,8.10
2022-08-17T04:48:59.974Z,8.00
2022-08-17T04:49:59.960Z,7.60
2022-08-17T04:50:59.988Z,7.60
2022-08-17T04:52:04.415Z,7.90
2022-08-17T04:53:00.578Z,8.00
2022-08-17T04:53:59.913Z,7.50
2022-08-17T04:55:00.834Z,8.00
2022-08-17T04:55:59.922Z,7.20
2022-08-17T04:56:59.876Z,7.30
2022-08-17T04:57:59.862Z,7.50
2022-08-17T04:58:59.838Z,7.00
2022-08-17T04:59:59.805Z,6.80
2022-08-17T05:00:59.912Z,6.80
2022-08-17T05:01:59.806Z,7.40
2022-08-17T05:02:59.828Z,6.60
2022-08-17T05:03:59.787Z,7.80
2022-08-17T05:04:59.760Z,7.60
2022-08-17T05:06:00.072Z,7.60
2022-08-17T05:07:00.033Z,7.80
2022-08-17T05:08:00.003Z,8.20
2022-08-17T05:08:59.709Z,7.50
2022-08-17T05:09:59.705Z,7.40
2022-08-17T05:10:59.683Z,7.50
2022-08-17T05:11:59.725Z,7.80
2022-08-17T05:12:59.659Z,7.80
2022-08-17T05:13:59.674Z,8.10
2022-08-17T05:14:59.636Z,7.90
2022-08-17T05:16:00.416Z,7.60
2022-08-17T05:16:59.607Z,7.40
2022-08-17T05:17:59.601Z,7.70
2022-08-17T05:18:59.580Z,7.40
2022-08-17T05:19:59.551Z,7.50
2022-08-17T05:20:59.857Z,7.50
2022-08-17T05:21:59.586Z,7.50
2022-08-17T05:22:59.521Z,7.50
2022-08-17T05:23:59.765Z,8.30
2022-08-17T05:24:59.486Z,7.20
2022-08-17T05:25:59.491Z,7.60
2022-08-17T05:27:04.175Z,7.20
